»·PEaware :: N211CA KMOD-O22

N211CA :: KMOD-O22

FLIGHT INFORMATION

Flight Status: Arrived
Operator: Privately registered:
United States
More flights under this callsign
Pilot: Justin S. (11776)
Aircraft: CESSNA 172 SKYHAWK
(C172)
More flights by this aircraft type
Origin: KMOD Modesto City-Co-Sham
United States
Destination: O22 Columbia
United States
More flights between these airports :: More routes between these airports
Route: WRAPS HABXU
File this flight plan on PilotEdge
Remarks:
Altitude:
(Current/Filed)
50ft
Speed:
(Current/Filed)
115kts
Departed: 02-Oct-16 10:46 AM
Arrived: 02-Oct-16 11:13 AM
Distance/Time
Traveled:
306nm/0:26
Distance/Time
To Go:
Arrived

Flight Plot

Page will automatically refresh every two minutes.


Map Options




Map Legend


Flown Route
Filed Route
Departure Airport
Arrival Airport
Navaid (VOR, NDB)
Fix

Horizontal Profiles

Position Reports

Time Latitude Longitude Heading Altitude Ground
Speed
02-Oct-16 10:09 37.627335 -120.965153 91 101ft 0kts
02-Oct-16 10:10 37.627335 -120.965153 91 101ft 0kts
02-Oct-16 10:11 37.627335 -120.965153 91 101ft 0kts
02-Oct-16 10:12 37.627335 -120.965153 91 101ft 0kts
02-Oct-16 10:13 37.627335 -120.965153 91 101ft 0kts
02-Oct-16 10:14 37.627335 -120.965153 91 101ft 0kts
02-Oct-16 10:15 37.627335 -120.965153 91 101ft 0kts
02-Oct-16 10:16 37.627335 -120.965153 91 101ft 0kts
02-Oct-16 10:17 37.627335 -120.965153 91 101ft 0kts
02-Oct-16 10:18 37.627335 -120.965153 91 101ft 0kts
02-Oct-16 10:19 37.627335 -120.965153 91 101ft 0kts
02-Oct-16 10:20 37.627335 -120.965153 91 101ft 0kts
02-Oct-16 10:21 37.627335 -120.965153 91 101ft 0kts
02-Oct-16 10:22 37.627335 -120.965153 91 101ft 0kts
02-Oct-16 10:23 37.627335 -120.965153 91 101ft 0kts
02-Oct-16 10:24 37.627335 -120.965153 91 101ft 0kts
02-Oct-16 10:25 37.627335 -120.965153 91 101ft 0kts
02-Oct-16 10:26 37.627335 -120.965153 91 101ft 0kts
02-Oct-16 10:27 37.627335 -120.965153 91 101ft 0kts
02-Oct-16 10:28 37.627335 -120.965153 91 101ft 0kts
02-Oct-16 10:29 37.627335 -120.965153 91 101ft 0kts
02-Oct-16 10:30 37.627335 -120.965153 91 101ft 0kts
02-Oct-16 10:31 37.627335 -120.965153 91 101ft 0kts
02-Oct-16 10:32 37.627335 -120.965153 91 101ft 0kts
02-Oct-16 10:33 37.627335 -120.965153 91 101ft 0kts
02-Oct-16 10:34 37.627335 -120.965153 91 101ft 0kts
02-Oct-16 10:35 37.627335 -120.965153 91 101ft 0kts
02-Oct-16 10:36 37.627335 -120.965153 91 101ft 0kts
02-Oct-16 10:37 37.627335 -120.965153 91 101ft 0kts
02-Oct-16 10:38 37.627335 -120.965153 91 101ft 0kts
02-Oct-16 10:39 37.627335 -120.965153 91 101ft 0kts
02-Oct-16 10:40 37.627335 -120.965153 91 101ft 0kts
02-Oct-16 10:41 37.629377 -120.963989 81 101ft 9kts
02-Oct-16 10:42 37.617834 -120.948488 141 805ft 74kts
02-Oct-16 10:43 37.630056 -120.935988 36 1901ft 63kts
02-Oct-16 10:44 37.648673 -120.927264 11 2851ft 73kts
02-Oct-16 10:45 37.655251 -120.924784 3 3175ft 74kts
02-Oct-16 10:46 37.668036 -120.921126 14 3712ft 86kts
02-Oct-16 10:47 37.678425 -120.913316 18 4194ft 85kts
02-Oct-16 10:48 37.701052 -120.900569 22 4998ft 102kts
02-Oct-16 10:49 37.730124 -120.880692 23 5070ft 127kts
02-Oct-16 10:50 37.760542 -120.857003 28 5051ft 129kts
02-Oct-16 10:51 37.790495 -120.831997 24 5038ft 128kts
02-Oct-16 10:52 37.821989 -120.810563 21 5015ft 129kts
02-Oct-16 10:53 37.852638 -120.786787 40 5008ft 131kts
02-Oct-16 10:54 37.863076 -120.742451 79 4995ft 133kts
02-Oct-16 10:55 37.866770 -120.695782 90 4998ft 133kts
02-Oct-16 10:56 37.866236 -120.648680 91 4993ft 134kts
02-Oct-16 10:57 37.866326 -120.601472 98 4940ft 132kts
02-Oct-16 10:58 37.865165 -120.556268 86 4516ft 127kts
02-Oct-16 10:59 37.864626 -120.510250 90 4519ft 132kts
02-Oct-16 11:00 37.862057 -120.463777 95 4489ft 136kts
02-Oct-16 11:01 37.880524 -120.438221 351 4244ft 104kts
02-Oct-16 11:02 37.908888 -120.436871 3 3717ft 103kts
02-Oct-16 11:03 37.934360 -120.430375 2 3410ft 90kts
02-Oct-16 11:04 37.960734 -120.427753 3 3085ft 106kts
02-Oct-16 11:05 37.987302 -120.421604 1 2818ft 87kts
02-Oct-16 11:06 38.009259 -120.417385 355 2472ft 66kts
02-Oct-16 11:07 38.024722 -120.414370 4 2140ft 49kts
02-Oct-16 11:08 38.022043 -120.414948 3 2207ft 50kts
02-Oct-16 11:09 38.027996 -120.413631 352 2122ft 0kts
02-Oct-16 11:10 34.131849 -116.400384 249 3228ft 0kts
02-Oct-16 11:11 34.131855 -116.400369 249 3227ft 0kts
02-Oct-16 11:12 34.131855 -116.400369 249 3227ft 0kts
02-Oct-16 11:13 34.131855 -116.400369 249 3227ft 0kts
02-Oct-16 11:14 34.131855 -116.400369 249 3227ft 0kts
02-Oct-16 11:15 34.131855 -116.400369 249 3227ft 0kts
02-Oct-16 11:16 34.131855 -116.400369 249 3227ft 0kts
02-Oct-16 11:17 34.131855 -116.400369 249 3227ft 0kts
02-Oct-16 11:18 34.129338 -116.419181 263 3589ft 113kts
02-Oct-16 11:19 34.116401 -116.451235 253 4362ft 125kts
02-Oct-16 11:20 34.130128 -116.406228 67 3248ft 114kts
02-Oct-16 11:21 34.119033 -116.380031 209 5194ft 109kts
02-Oct-16 11:22 34.095551 -116.403606 222 7010ft 114kts
02-Oct-16 11:23 34.072113 -116.429030 233 8757ft 110kts

Navigation Log

Ident Type
Flight plan parsing failed, navigation log unavailable